Nearby METAR Reports

KLWM - Lawrence,MA, USA
Distance from station: NE 12mi, 19km
Updated: Tue, 25-Feb-2020 1:54pm EST
Overcast
Overcast
 Wind from ENE
Wind: ENE 5 mph , 7 km/h
Temperature: 54°F , 12°C
Dew Point: 37°F , 3°C
Humidity: 54%
Barometer: 29.87 inHg , 1011.5 hPa
Clouds: Overcast
Visibility: 10 miles , 16 km
Cloud details: Overcast 9000 ft
2020/02/25 18:54 KLWM 251854Z 07004KT 10SM OVC090 12/03 A2987 RMK AO2 SLP114 T01170028
KBED - Bedford,MA, USA
Distance from station: SSE 12mi, 19km
Updated: Tue, 25-Feb-2020 1:51pm EST
Mostly Cloudy
Mostly Cloudy
 Wind from SSE
Wind: SSE 7 mph , 11 km/h
Temperature: 54°F , 12°C
Dew Point: 30°F , -1°C
Humidity: 41%
Barometer: 29.85 inHg , 1010.8 hPa
Clouds: Mostly Cloudy
Visibility: 10 miles , 16 km
Cloud details: Mostly Cloudy 8500 ft
2020/02/25 18:51 KBED 251851Z 16006KT 10SM BKN085 12/M01 A2985 RMK AO2 SLP121 T01221011

Metar display script from Saratoga-Weather.org